createdAt,value
2022-09-11T00:01:18.376Z,7.97
2022-09-11T00:03:48.205Z,9.10
2022-09-11T00:06:28.893Z,9.32
2022-09-11T00:09:01.645Z,9.35
2022-09-11T00:11:31.507Z,10.15
2022-09-11T00:14:00.240Z,9.43
2022-09-11T00:16:30.990Z,11.13
2022-09-11T00:19:01.171Z,10.23
2022-09-11T00:21:29.985Z,10.23
2022-09-11T00:24:00.123Z,9.65
2022-09-11T00:26:28.608Z,10.38
2022-09-11T00:28:57.269Z,8.80
2022-09-11T00:31:28.100Z,9.48
2022-09-11T00:33:57.022Z,10.55
2022-09-11T00:36:26.537Z,10.80
2022-09-11T00:38:55.042Z,10.40
2022-09-11T00:41:26.642Z,10.50
2022-09-11T00:44:02.333Z,11.57
2022-09-11T00:46:41.372Z,12.82
2022-09-11T00:49:19.111Z,12.90
2022-09-11T00:51:53.391Z,11.75
2022-09-11T00:54:28.574Z,12.70
2022-09-11T00:57:00.050Z,14.27
2022-09-11T00:59:30.655Z,14.43
2022-09-11T01:01:59.089Z,15.30
2022-09-11T01:04:27.916Z,15.18
2022-09-11T01:06:58.697Z,15.45
2022-09-11T01:09:29.123Z,14.43
2022-09-11T01:12:04.854Z,15.35
2022-09-11T01:14:41.946Z,15.52
2022-09-11T01:17:22.624Z,15.73
2022-09-11T01:20:15.632Z,16.65
2022-09-11T01:22:58.804Z,16.50
2022-09-11T01:25:32.678Z,16.95
2022-09-11T01:28:06.381Z,16.48
2022-09-11T01:30:39.170Z,15.32
2022-09-11T01:33:14.064Z,14.82
2022-09-11T01:35:53.038Z,14.43
2022-09-11T01:38:29.289Z,13.18
2022-09-11T01:41:01.726Z,12.88
2022-09-11T01:43:34.510Z,13.88
2022-09-11T01:46:07.621Z,16.15
2022-09-11T01:48:40.877Z,15.40
2022-09-11T01:51:15.493Z,14.68
2022-09-11T01:53:50.181Z,15.50
2022-09-11T01:56:23.501Z,14.98
2022-09-11T01:58:59.701Z,16.58
2022-09-11T02:01:31.486Z,18.55
2022-09-11T02:04:07.353Z,19.27
2022-09-11T02:06:42.538Z,20.02
2022-09-11T02:09:15.317Z,21.48
2022-09-11T02:11:46.934Z,24.20
2022-09-11T02:14:21.825Z,24.92
2022-09-11T02:16:52.171Z,26.58
2022-09-11T02:19:21.667Z,25.33
2022-09-11T02:21:50.839Z,29.70
2022-09-11T02:24:20.170Z,29.48
2022-09-11T02:26:52.582Z,36.45
2022-09-11T02:29:22.711Z,32.60
2022-09-11T02:31:52.270Z,34.88
2022-09-11T02:34:26.900Z,33.65
2022-09-11T02:37:14.729Z,40.60
2022-09-11T02:40:04.299Z,42.90
2022-09-11T02:42:44.661Z,42.42
2022-09-11T02:45:25.171Z,42.20
2022-09-11T02:48:02.793Z,41.92
2022-09-11T02:50:40.354Z,42.50
2022-09-11T02:53:13.987Z,40.45
2022-09-11T02:55:57.788Z,40.65
2022-09-11T02:58:28.947Z,41.38
2022-09-11T03:00:59.747Z,41.47
2022-09-11T03:03:28.013Z,40.10
2022-09-11T03:05:56.306Z,42.08
2022-09-11T03:08:24.645Z,42.95
2022-09-11T03:10:52.584Z,43.60
2022-09-11T03:13:20.529Z,43.65
2022-09-11T03:15:48.658Z,43.05
2022-09-11T03:18:18.407Z,40.95
2022-09-11T03:20:47.046Z,42.40
2022-09-11T03:23:15.071Z,40.95
2022-09-11T03:25:43.196Z,41.35
2022-09-11T03:28:12.559Z,41.57
2022-09-11T03:30:41.488Z,40.40
2022-09-11T03:33:11.338Z,40.80
2022-09-11T03:35:40.735Z,40.30
2022-09-11T03:38:09.302Z,39.60
2022-09-11T03:40:39.173Z,42.30
2022-09-11T03:43:07.144Z,43.67
2022-09-11T03:45:35.186Z,42.78
2022-09-11T03:48:03.557Z,41.83
2022-09-11T03:50:32.959Z,40.88
2022-09-11T03:53:02.218Z,42.15
2022-09-11T03:55:31.744Z,42.55
2022-09-11T03:58:01.105Z,43.03
2022-09-11T04:00:29.523Z,41.47
2022-09-11T04:02:58.416Z,41.67
2022-09-11T04:05:33.844Z,40.70
2022-09-11T04:08:04.376Z,40.10
2022-09-11T04:13:01.665Z,40.95
2022-09-11T04:15:31.026Z,38.00
2022-09-11T04:18:03.347Z,39.10
2022-09-11T04:20:34.507Z,37.88
2022-09-11T04:23:04.610Z,37.67
2022-09-11T04:25:32.676Z,36.60
2022-09-11T04:28:03.066Z,38.38
2022-09-11T04:30:30.994Z,38.42
2022-09-11T04:32:59.046Z,35.42
2022-09-11T04:35:27.193Z,34.72
2022-09-11T04:37:58.433Z,34.20
2022-09-11T04:40:27.774Z,34.25
2022-09-11T04:42:55.708Z,33.73
2022-09-11T04:45:24.155Z,34.10
2022-09-11T04:47:56.058Z,34.53
2022-09-11T04:50:23.891Z,33.83
2022-09-11T04:53:11.062Z,36.38
2022-09-11T04:55:40.498Z,37.47
2022-09-11T04:58:10.118Z,34.75
2022-09-11T05:00:38.273Z,37.97
2022-09-11T05:03:06.293Z,36.90
2022-09-11T05:05:34.284Z,39.28
2022-09-11T05:08:03.946Z,37.45
2022-09-11T05:10:32.500Z,36.78
2022-09-11T05:13:01.759Z,36.90
2022-09-11T05:15:31.809Z,40.40
2022-09-11T05:18:00.613Z,38.63
2022-09-11T05:20:31.775Z,35.90
2022-09-11T05:22:59.955Z,39.25
2022-09-11T05:25:31.847Z,36.42
2022-09-11T05:28:01.336Z,37.90
2022-09-11T05:30:30.237Z,39.50
2022-09-11T05:32:58.667Z,36.17
2022-09-11T05:35:32.150Z,38.55
2022-09-11T05:38:00.796Z,38.22
2022-09-11T05:40:28.955Z,37.08
2022-09-11T05:42:57.869Z,35.58
2022-09-11T05:45:27.292Z,34.15
2022-09-11T05:47:56.017Z,34.63
2022-09-11T05:50:24.426Z,32.60
2022-09-11T05:52:52.481Z,32.53
2022-09-11T05:55:20.402Z,32.53
2022-09-11T05:57:48.593Z,34.70
2022-09-11T06:00:16.856Z,32.70
2022-09-11T06:02:54.303Z,32.00
2022-09-11T06:05:24.624Z,31.48
2022-09-11T06:07:52.890Z,33.03
2022-09-11T06:10:20.797Z,33.30
2022-09-11T06:12:48.811Z,33.50
2022-09-11T06:15:42.879Z,33.50
2022-09-11T06:18:07.195Z,34.05
2022-09-11T06:23:08.615Z,33.38
2022-09-11T06:25:37.645Z,34.53
2022-09-11T06:28:05.690Z,35.85
2022-09-11T06:30:34.973Z,34.78
2022-09-11T06:33:03.719Z,36.25
2022-09-11T06:35:33.282Z,36.55
2022-09-11T06:38:02.971Z,35.22
2022-09-11T06:40:31.580Z,38.70
2022-09-11T06:43:00.368Z,37.53
2022-09-11T06:45:31.133Z,37.47
2022-09-11T06:50:30.040Z,34.53
2022-09-11T06:53:08.276Z,35.95
2022-09-11T06:55:40.220Z,35.15
2022-09-11T06:58:11.840Z,35.13
2022-09-11T07:00:40.566Z,34.65
2022-09-11T07:03:11.481Z,31.65
2022-09-11T07:05:39.594Z,31.38
2022-09-11T07:08:09.823Z,31.30
2022-09-11T07:10:38.423Z,32.13
2022-09-11T07:13:06.369Z,30.52
2022-09-11T07:15:34.704Z,31.92
2022-09-11T07:18:03.750Z,28.33
2022-09-11T07:20:32.195Z,28.15
2022-09-11T07:23:00.114Z,28.40
2022-09-11T07:25:32.213Z,27.55
2022-09-11T07:28:00.565Z,27.00
2022-09-11T07:30:28.802Z,25.13
2022-09-11T07:32:58.067Z,35.38
2022-09-11T07:35:26.030Z,30.17
2022-09-11T07:37:54.747Z,28.92
2022-09-11T07:40:26.621Z,29.48
2022-09-11T07:42:56.136Z,31.50
2022-09-11T07:45:24.437Z,31.88
2022-09-11T07:47:53.463Z,32.78
2022-09-11T07:50:24.295Z,36.28
2022-09-11T07:52:52.960Z,35.92
2022-09-11T07:55:22.275Z,35.37
2022-09-11T07:57:52.083Z,35.87
2022-09-11T08:00:22.457Z,36.87
2022-09-11T08:02:58.847Z,37.60
2022-09-11T08:05:33.760Z,34.17
2022-09-11T08:08:02.308Z,34.30
2022-09-11T08:10:31.079Z,33.10
2022-09-11T08:13:00.525Z,29.27
2022-09-11T08:15:35.661Z,28.70
2022-09-11T08:18:06.341Z,29.83
2022-09-11T08:20:34.531Z,27.27
2022-09-11T08:23:02.581Z,34.30
2022-09-11T08:25:31.199Z,26.45
2022-09-11T08:28:01.498Z,28.63
2022-09-11T08:30:29.813Z,28.25
2022-09-11T08:32:59.532Z,28.92
2022-09-11T08:35:28.615Z,32.17
2022-09-11T08:37:56.691Z,29.38
2022-09-11T08:40:24.871Z,28.60
2022-09-11T08:42:58.984Z,31.67
2022-09-11T08:45:32.280Z,29.50
2022-09-11T08:48:03.176Z,30.15
2022-09-11T08:50:36.065Z,31.70
2022-09-11T08:53:07.762Z,32.72
2022-09-11T08:55:43.892Z,31.55
2022-09-11T08:58:22.220Z,31.98
2022-09-11T09:00:56.104Z,35.17
2022-09-11T09:03:37.676Z,31.92
2022-09-11T09:06:34.736Z,28.15
2022-09-11T09:09:13.702Z,29.25
2022-09-11T09:11:51.559Z,27.55
2022-09-11T09:14:45.680Z,27.65
2022-09-11T09:17:19.349Z,27.15
2022-09-11T09:19:57.506Z,28.83
2022-09-11T09:22:35.505Z,27.75
2022-09-11T09:25:10.831Z,27.70
2022-09-11T09:27:43.539Z,28.48
2022-09-11T09:30:17.636Z,30.30
2022-09-11T09:32:50.925Z,27.65
2022-09-11T09:35:24.477Z,27.67
2022-09-11T09:37:54.302Z,24.45
2022-09-11T09:40:25.568Z,26.50
2022-09-11T09:43:12.512Z,25.42
2022-09-11T09:45:49.348Z,25.88
2022-09-11T09:48:17.567Z,24.88
2022-09-11T09:50:47.107Z,24.88
2022-09-11T09:53:33.948Z,24.83
2022-09-11T09:56:03.130Z,22.92
2022-09-11T09:58:35.644Z,22.33
2022-09-11T10:01:03.588Z,21.00
2022-09-11T10:03:31.488Z,23.50
2022-09-11T10:06:00.859Z,20.30
2022-09-11T10:08:33.665Z,19.83
2022-09-11T10:11:03.957Z,19.90
2022-09-11T10:13:33.749Z,20.98
2022-09-11T10:16:04.500Z,19.77
2022-09-11T10:18:37.753Z,18.23
2022-09-11T10:21:29.373Z,19.05
2022-09-11T10:23:59.299Z,19.83
2022-09-11T10:26:32.689Z,19.15
2022-09-11T10:29:10.333Z,17.45
2022-09-11T10:31:41.995Z,16.33
2022-09-11T10:34:19.130Z,15.98
2022-09-11T10:36:56.262Z,15.95
2022-09-11T10:39:27.506Z,14.27
2022-09-11T10:41:59.667Z,15.35
2022-09-11T10:44:30.667Z,15.38
2022-09-11T10:47:06.625Z,15.13
2022-09-11T10:49:34.972Z,14.98
2022-09-11T10:52:19.265Z,13.45
2022-09-11T10:55:00.138Z,13.20
2022-09-11T10:57:33.586Z,12.10
2022-09-11T11:00:08.981Z,13.95
2022-09-11T11:02:40.897Z,12.65
2022-09-11T11:05:17.070Z,13.30
2022-09-11T11:08:02.078Z,13.25
2022-09-11T11:10:42.674Z,11.70
2022-09-11T11:13:32.846Z,12.80
2022-09-11T11:16:11.158Z,11.35
2022-09-11T11:18:55.007Z,11.95
2022-09-11T11:21:34.315Z,11.70
2022-09-11T11:24:26.604Z,12.77
2022-09-11T11:27:19.786Z,12.00
2022-09-11T11:30:04.666Z,14.65
2022-09-11T11:32:51.503Z,50.72
2022-09-11T11:35:24.034Z,17.50
2022-09-11T11:37:59.856Z,12.18
2022-09-11T11:40:34.543Z,11.75
2022-09-11T11:43:06.459Z,11.00
2022-09-11T11:45:40.392Z,13.13
2022-09-11T11:48:14.050Z,13.15
2022-09-11T11:50:45.305Z,12.60
2022-09-11T11:53:21.028Z,22.17
2022-09-11T11:55:59.760Z,20.45
2022-09-11T11:58:38.756Z,14.88
2022-09-11T12:01:14.960Z,32.75
2022-09-11T12:03:51.850Z,12.23
2022-09-11T12:06:20.464Z,11.55
2022-09-11T12:08:49.854Z,13.02
2022-09-11T12:11:28.310Z,13.40
2022-09-11T12:13:56.476Z,13.30
2022-09-11T12:16:29.181Z,12.93
2022-09-11T12:19:07.747Z,13.13
2022-09-11T12:21:38.531Z,15.90
2022-09-11T12:24:17.562Z,14.52
2022-09-11T12:26:47.347Z,12.82
2022-09-11T12:29:53.846Z,12.35
2022-09-11T12:32:29.143Z,12.82
2022-09-11T12:35:02.646Z,11.75
2022-09-11T12:37:38.643Z,11.45
2022-09-11T12:40:18.676Z,11.90
2022-09-11T12:42:57.257Z,12.07
2022-09-11T12:45:37.203Z,11.85
2022-09-11T12:48:12.059Z,12.50
2022-09-11T12:50:40.997Z,11.48
2022-09-11T12:53:18.926Z,11.60
2022-09-11T12:55:58.364Z,11.10
2022-09-11T12:58:38.596Z,10.82
2022-09-11T13:03:50.811Z,11.05
2022-09-11T13:06:19.169Z,10.40
2022-09-11T13:08:51.059Z,9.93
2022-09-11T13:11:40.625Z,9.25
2022-09-11T13:14:52.655Z,10.00
2022-09-11T13:17:28.535Z,9.55
2022-09-11T13:20:19.287Z,9.88
2022-09-11T13:22:48.951Z,9.27
2022-09-11T13:25:19.150Z,9.75
2022-09-11T13:30:21.665Z,10.20
2022-09-11T13:32:52.208Z,10.05
2022-09-11T13:35:27.130Z,10.15
2022-09-11T13:37:59.595Z,10.45
2022-09-11T13:40:31.735Z,8.45
2022-09-11T13:43:01.481Z,9.07
2022-09-11T13:45:31.092Z,8.43
2022-09-11T13:47:59.482Z,8.85
2022-09-11T13:50:27.593Z,9.45
2022-09-11T13:52:56.142Z,7.50
2022-09-11T13:55:27.170Z,7.97
2022-09-11T13:57:58.667Z,8.68
2022-09-11T14:00:45.528Z,8.38
2022-09-11T14:03:20.425Z,7.32
2022-09-11T14:05:55.107Z,7.78
2022-09-11T14:08:34.414Z,9.55
2022-09-11T14:11:10.934Z,9.10
2022-09-11T14:13:45.243Z,7.93
2022-09-11T14:16:24.178Z,8.52
2022-09-11T14:18:56.712Z,8.88
2022-09-11T14:21:31.491Z,8.27
2022-09-11T14:24:00.182Z,9.55
2022-09-11T14:26:42.082Z,9.63
2022-09-11T14:29:24.482Z,10.40
2022-09-11T14:31:55.726Z,11.05
2022-09-11T14:34:27.697Z,10.00
2022-09-11T14:36:59.855Z,9.93
2022-09-11T14:39:34.497Z,9.73
2022-09-11T14:42:03.244Z,9.77
2022-09-11T14:44:32.773Z,10.85
2022-09-11T14:47:02.558Z,9.75
2022-09-11T14:49:30.711Z,7.85
2022-09-11T14:52:00.558Z,7.45
2022-09-11T14:54:31.774Z,7.35
2022-09-11T14:56:59.965Z,7.95
2022-09-11T14:59:29.675Z,7.30
2022-09-11T15:01:58.995Z,7.10
2022-09-11T15:04:29.623Z,7.13
2022-09-11T15:06:59.894Z,4.95
2022-09-11T15:09:27.883Z,4.60
2022-09-11T15:11:56.203Z,5.20
2022-09-11T15:14:51.932Z,4.82
2022-09-11T15:17:16.407Z,4.82
2022-09-11T15:19:47.151Z,5.75
2022-09-11T15:22:15.112Z,5.43
2022-09-11T15:24:43.299Z,5.38
2022-09-11T15:27:11.864Z,5.05
2022-09-11T15:29:40.647Z,4.82
2022-09-11T15:32:09.800Z,5.35
2022-09-11T15:34:39.847Z,5.13
2022-09-11T15:37:09.753Z,4.60
2022-09-11T15:39:37.935Z,5.85
2022-09-11T15:42:07.581Z,5.28
2022-09-11T15:44:37.517Z,4.65
2022-09-11T15:47:06.247Z,5.05
2022-09-11T15:49:34.673Z,5.07
2022-09-11T15:52:02.945Z,4.63
2022-09-11T15:54:32.332Z,4.10
2022-09-11T15:57:00.195Z,5.85
2022-09-11T15:59:28.557Z,5.15
2022-09-11T16:01:56.655Z,4.25
2022-09-11T16:04:28.231Z,4.10
2022-09-11T16:06:56.275Z,3.90
2022-09-11T16:09:26.797Z,3.78
2022-09-11T16:11:57.040Z,3.30
2022-09-11T16:14:27.320Z,3.50
2022-09-11T16:19:28.322Z,3.55
2022-09-11T16:21:57.784Z,3.95
2022-09-11T16:24:26.517Z,6.22
2022-09-11T16:26:56.409Z,4.05
2022-09-11T16:29:25.664Z,4.22
2022-09-11T16:31:54.959Z,4.23
2022-09-11T16:34:23.341Z,4.67
2022-09-11T16:36:52.254Z,4.35
2022-09-11T16:39:20.583Z,3.92
2022-09-11T16:41:48.648Z,3.97
2022-09-11T16:44:18.395Z,4.90
2022-09-11T16:46:46.997Z,4.32
2022-09-11T16:49:17.388Z,3.33
2022-09-11T16:51:47.300Z,3.95
2022-09-11T16:54:16.418Z,4.80
2022-09-11T16:56:46.150Z,5.20
2022-09-11T16:59:15.628Z,4.82
2022-09-11T17:01:45.682Z,3.80
2022-09-11T17:06:41.612Z,4.47
2022-09-11T17:09:09.405Z,6.30
2022-09-11T17:11:37.593Z,4.57
2022-09-11T17:14:05.662Z,4.72
2022-09-11T17:16:35.723Z,7.97
2022-09-11T17:19:06.226Z,4.82
2022-09-11T17:21:36.175Z,4.97
2022-09-11T17:24:05.992Z,5.80
2022-09-11T17:26:34.706Z,5.28
2022-09-11T17:29:03.698Z,5.10
2022-09-11T17:31:32.400Z,4.40
2022-09-11T17:34:00.422Z,5.13
2022-09-11T17:36:29.832Z,4.90
2022-09-11T17:38:59.491Z,4.90
2022-09-11T17:41:27.552Z,5.60
2022-09-11T17:43:55.526Z,4.70
2022-09-11T17:46:25.268Z,5.03
2022-09-11T17:48:53.329Z,5.30
2022-09-11T17:51:24.159Z,4.10
2022-09-11T17:53:55.537Z,4.68
2022-09-11T17:56:26.131Z,4.97
2022-09-11T17:58:56.232Z,4.70
2022-09-11T18:01:25.103Z,4.72
2022-09-11T18:03:54.730Z,4.90
2022-09-11T18:06:28.438Z,4.65
2022-09-11T18:09:01.673Z,4.68
2022-09-11T18:11:30.808Z,5.38
2022-09-11T18:14:00.443Z,5.10
2022-09-11T18:16:28.544Z,5.07
2022-09-11T18:18:56.755Z,4.97
2022-09-11T18:21:25.808Z,4.50
2022-09-11T18:23:54.723Z,4.82
2022-09-11T18:26:26.138Z,5.03
2022-09-11T18:28:57.678Z,4.72
2022-09-11T18:31:30.160Z,4.88
2022-09-11T18:34:00.455Z,4.50
2022-09-11T18:36:29.778Z,4.78
2022-09-11T18:39:01.044Z,5.53
2022-09-11T18:41:34.927Z,5.43
2022-09-11T18:44:06.427Z,5.00
2022-09-11T18:46:34.505Z,4.30
2022-09-11T18:49:03.381Z,5.43
2022-09-11T18:51:31.546Z,7.22
2022-09-11T18:54:00.106Z,5.53
2022-09-11T18:56:32.345Z,5.00
2022-09-11T18:59:01.217Z,5.70
2022-09-11T19:01:32.699Z,5.55
2022-09-11T19:04:01.094Z,5.38
2022-09-11T19:06:29.866Z,5.13
2022-09-11T19:08:57.877Z,5.90
2022-09-11T19:11:28.113Z,6.95
2022-09-11T19:16:28.377Z,6.10
2022-09-11T19:18:56.229Z,5.90
2022-09-11T19:21:26.139Z,6.93
2022-09-11T19:23:57.873Z,6.00
2022-09-11T19:26:28.332Z,5.68
2022-09-11T19:29:00.234Z,6.82
2022-09-11T19:31:30.097Z,6.53
2022-09-11T19:34:00.978Z,5.80
2022-09-11T19:36:30.753Z,6.32
2022-09-11T19:39:00.811Z,6.32
2022-09-11T19:44:02.161Z,7.55
2022-09-11T19:46:31.548Z,7.07
2022-09-11T19:49:00.944Z,7.10
2022-09-11T19:51:30.995Z,7.57
2022-09-11T19:54:02.766Z,7.55
2022-09-11T19:56:32.919Z,7.60
2022-09-11T19:59:02.648Z,8.82
2022-09-11T20:01:31.702Z,7.93
2022-09-11T20:04:00.997Z,6.55
2022-09-11T20:06:33.088Z,7.00
2022-09-11T20:11:49.947Z,7.00
2022-09-11T20:14:19.248Z,7.80
2022-09-11T20:16:47.230Z,7.10
2022-09-11T20:19:17.133Z,8.23
2022-09-11T20:21:45.033Z,7.32
2022-09-11T20:24:13.028Z,6.88
2022-09-11T20:26:41.412Z,7.47
2022-09-11T20:29:14.109Z,7.60
2022-09-11T20:31:48.740Z,6.15
2022-09-11T20:34:17.809Z,6.70
2022-09-11T20:36:46.136Z,6.85
2022-09-11T20:39:15.281Z,7.80
2022-09-11T20:41:43.679Z,7.40
2022-09-11T20:44:11.961Z,7.40
2022-09-11T20:46:40.465Z,7.50
2022-09-11T20:49:10.071Z,8.10
2022-09-11T20:51:38.035Z,7.65
2022-09-11T20:54:06.322Z,7.95
2022-09-11T20:56:34.362Z,9.82
2022-09-11T20:59:02.424Z,8.55
2022-09-11T21:01:33.272Z,8.02
2022-09-11T21:04:03.293Z,8.88
2022-09-11T21:06:34.706Z,8.68
2022-09-11T21:09:08.159Z,9.35
2022-09-11T21:11:37.274Z,9.43
2022-09-11T21:14:05.763Z,8.43
2022-09-11T21:16:34.039Z,9.48
2022-09-11T21:19:03.132Z,10.07
2022-09-11T21:21:33.805Z,8.70
2022-09-11T21:24:04.612Z,9.27
2022-09-11T21:26:34.400Z,8.40
2022-09-11T21:29:05.732Z,8.15
2022-09-11T21:31:33.834Z,7.95
2022-09-11T21:34:01.828Z,7.72
2022-09-11T21:36:30.279Z,7.68
2022-09-11T21:38:59.536Z,8.45
2022-09-11T21:41:27.366Z,7.88
2022-09-11T21:43:55.290Z,7.60
2022-09-11T21:46:23.314Z,8.63
2022-09-11T21:48:51.566Z,7.47
2022-09-11T21:51:21.139Z,8.20
2022-09-11T21:53:50.299Z,7.68
2022-09-11T21:56:21.648Z,8.40
2022-09-11T21:58:51.222Z,7.95
2022-09-11T22:01:20.284Z,7.95
2022-09-11T22:03:48.229Z,8.82
2022-09-11T22:06:16.696Z,8.95
2022-09-11T22:08:47.135Z,8.82
2022-09-11T22:11:15.993Z,8.13
2022-09-11T22:13:46.694Z,7.93
2022-09-11T22:16:16.537Z,7.65
2022-09-11T22:18:47.801Z,7.85
2022-09-11T22:21:15.772Z,8.30
2022-09-11T22:23:43.849Z,10.82
2022-09-11T22:26:14.388Z,8.70
2022-09-11T22:28:43.611Z,7.95
2022-09-11T22:31:16.444Z,8.02
2022-09-11T22:33:44.794Z,7.63
2022-09-11T22:36:14.879Z,8.00
2022-09-11T22:38:43.065Z,7.57
2022-09-11T22:41:11.093Z,7.95
2022-09-11T22:43:39.275Z,8.30
2022-09-11T22:46:07.357Z,7.63
2022-09-11T22:48:37.060Z,8.07
2022-09-11T22:51:05.503Z,8.02
2022-09-11T22:53:34.172Z,7.78
2022-09-11T22:56:02.448Z,8.38
2022-09-11T22:58:31.502Z,8.75
2022-09-11T23:01:00.870Z,8.80
2022-09-11T23:03:29.054Z,9.40
2022-09-11T23:06:17.334Z,11.80
2022-09-11T23:08:47.011Z,9.55
2022-09-11T23:11:16.953Z,9.20
2022-09-11T23:13:44.940Z,8.82
2022-09-11T23:16:14.634Z,8.68
2022-09-11T23:18:43.466Z,9.88
2022-09-11T23:21:13.876Z,8.77
2022-09-11T23:26:11.935Z,8.43
2022-09-11T23:28:40.321Z,9.02
2022-09-11T23:31:13.491Z,8.85
2022-09-11T23:33:41.970Z,8.50
2022-09-11T23:36:13.372Z,9.13
2022-09-11T23:38:41.710Z,9.10
2022-09-11T23:41:09.545Z,9.38
2022-09-11T23:43:37.519Z,10.18
2022-09-11T23:46:05.865Z,9.98
2022-09-11T23:48:33.914Z,9.65
2022-09-11T23:51:02.123Z,10.20
2022-09-11T23:53:31.576Z,9.35
2022-09-11T23:55:59.686Z,10.53
2022-09-11T23:58:27.628Z,9.20
